Time;durP1;ratioP1;P1;durP2;ratioP2;P2;SDS_P1;SDS_P2;PMS_P1;PMS_P2;Temp;Humidity;BMP_temperature;BMP_pressure;BME280_temperature;BME280_humidity;BME280_pressure;Samples;Min_cycle;Max_cycle;Signal;HPM_P1;HPM_P2
2023/08/27 00:00:33;;;;;;;9.73;3.70;;;;;;;15.70;100.00;100857.34;5062538;28;20029;-76
2023/08/27 00:02:58;;;;;;;9.23;3.20;;;;;;;15.68;100.00;100848.50;5062805;28;20024;-78
2023/08/27 00:05:24;;;;;;;8.00;2.78;;;;;;;15.64;100.00;100843.53;5063436;28;20036;-77
2023/08/27 00:07:49;;;;;;;8.80;2.78;;;;;;;15.54;100.00;100841.69;5076738;28;20034;-77
2023/08/27 00:10:15;;;;;;;9.77;2.97;;;;;;;15.48;100.00;100825.16;5074280;28;20034;-77
2023/08/27 00:12:40;;;;;;;5.03;2.60;;;;;;;15.45;100.00;100811.91;5070513;28;20529;-76
2023/08/27 00:15:07;;;;;;;7.05;3.00;;;;;;;15.44;100.00;100807.50;5080646;28;20031;-77
2023/08/27 00:17:33;;;;;;;6.50;2.97;;;;;;;15.41;100.00;100810.50;5084722;28;20024;-78
2023/08/27 00:19:58;;;;;;;11.93;3.63;;;;;;;15.37;100.00;100799.97;5070988;28;20039;-78
2023/08/27 00:22:24;;;;;;;7.45;3.20;;;;;;;15.41;100.00;100788.84;5065697;28;20653;-77
2023/08/27 00:24:49;;;;;;;12.23;3.78;;;;;;;15.40;100.00;100781.69;5064462;28;20028;-77
2023/08/27 00:27:15;;;;;;;11.95;4.15;;;;;;;15.40;100.00;100777.13;5065555;28;20020;-77
2023/08/27 00:29:40;;;;;;;11.20;3.80;;;;;;;15.37;100.00;100767.47;5064077;28;20128;-77
2023/08/27 00:32:06;;;;;;;8.30;3.25;;;;;;;15.37;100.00;100764.75;5065442;28;20809;-77
2023/08/27 00:34:35;;;;;;;12.50;3.47;;;;;;;15.35;100.00;100764.03;5063134;28;20043;-78
2023/08/27 00:37:01;;;;;;;9.68;3.42;;;;;;;15.34;100.00;100767.75;5063381;28;20393;-77
2023/08/27 00:39:28;;;;;;;8.52;3.30;;;;;;;15.31;100.00;100767.19;5064098;28;20035;-77
2023/08/27 00:41:54;;;;;;;7.72;3.20;;;;;;;15.32;100.00;100763.47;5063208;28;20032;-77
2023/08/27 00:44:20;;;;;;;8.35;3.10;;;;;;;15.28;100.00;100757.47;5063408;28;20055;-77
2023/08/27 00:46:46;;;;;;;7.53;3.30;;;;;;;15.27;100.00;100760.34;5063360;28;20032;-77
2023/08/27 00:49:12;;;;;;;8.75;2.55;;;;;;;15.21;100.00;100756.34;5062989;28;20054;-77
2023/08/27 00:51:38;;;;;;;8.57;3.08;;;;;;;15.14;100.00;100757.94;5063662;28;20075;-77
2023/08/27 00:54:07;;;;;;;7.18;3.15;;;;;;;15.08;100.00;100759.38;5061057;28;20088;-77
2023/08/27 00:56:33;;;;;;;7.83;2.93;;;;;;;15.01;100.00;100745.56;5063026;28;20141;-77
2023/08/27 00:59:00;;;;;;;7.47;3.35;;;;;;;14.99;100.00;100750.28;5061994;28;20294;-78
2023/08/27 01:01:27;;;;;;;10.32;3.40;;;;;;;14.91;100.00;100749.28;5059914;28;20542;-78
2023/08/27 01:03:53;;;;;;;10.27;3.10;;;;;;;14.84;100.00;100754.41;5060567;28;20079;-78
2023/08/27 01:06:18;;;;;;;6.82;3.15;;;;;;;14.76;100.00;100757.81;5062080;28;20056;-78
2023/08/27 01:09:05;;;;;;;8.35;2.85;;;;;;;14.63;100.00;100751.84;5064052;28;20030;-78
2023/08/27 01:11:52;;;;;;;9.05;2.90;;;;;;;14.60;100.00;100747.53;5064942;28;20078;-78
2023/08/27 01:14:19;;;;;;;7.03;2.80;;;;;;;14.58;100.00;100748.66;5065312;28;20031;-78
2023/08/27 01:16:48;;;;;;;6.22;2.80;;;;;;;14.52;100.00;100739.25;5060627;28;20050;-78
2023/08/27 01:19:15;;;;;;;8.63;3.33;;;;;;;14.53;100.00;100746.38;5063618;28;20044;-78
2023/08/27 01:21:44;;;;;;;6.95;3.25;;;;;;;14.49;100.00;100743.13;5067124;28;20077;-78
2023/08/27 01:24:10;;;;;;;11.48;3.42;;;;;;;14.52;100.00;100739.25;5067681;28;20031;-78
2023/08/27 01:26:44;;;;;;;6.68;2.80;;;;;;;14.49;100.00;100739.53;5069780;28;20396;-82
2023/08/27 01:29:48;;;;;;;8.48;3.10;;;;;;;14.45;100.00;100738.13;5064638;28;20422;-82
2023/08/27 01:32:29;;;;;;;11.85;3.20;;;;;;;14.43;100.00;100740.13;5064466;28;20043;-82
2023/08/27 01:34:56;;;;;;;8.20;3.05;;;;;;;14.40;100.00;100732.28;5062334;28;20102;-82
2023/08/27 01:37:22;;;;;;;10.52;2.90;;;;;;;14.38;100.00;100726.16;5063500;28;20025;-82
2023/08/27 01:40:01;;;;;;;9.43;3.13;;;;;;;14.35;100.00;100727.31;5064419;28;20119;-81
2023/08/27 01:42:26;;;;;;;7.55;2.95;;;;;;;14.33;100.00;100722.03;5063795;28;20538;-79
2023/08/27 01:44:52;;;;;;;8.70;3.17;;;;;;;14.32;100.00;100723.03;5065209;28;20056;-81
2023/08/27 01:47:17;;;;;;;7.75;2.92;;;;;;;14.33;100.00;100734.69;5066785;28;20365;-81
2023/08/27 01:49:43;;;;;;;9.80;3.33;;;;;;;14.36;100.00;100730.84;5067589;28;20502;-82
2023/08/27 01:52:08;;;;;;;7.90;3.05;;;;;;;14.40;100.00;100726.88;5062925;28;20082;-83
2023/08/27 01:54:34;;;;;;;7.68;2.92;;;;;;;14.38;100.00;100718.91;5063509;28;20028;-82
2023/08/27 01:56:59;;;;;;;11.20;3.05;;;;;;;14.40;100.00;100721.47;5083745;28;20426;-82
2023/08/27 01:59:24;;;;;;;8.55;2.95;;;;;;;14.40;100.00;100716.06;5078680;28;20037;-82
2023/08/27 02:01:50;;;;;;;10.68;3.38;;;;;;;14.45;100.00;100721.88;5083689;28;20052;-81
2023/08/27 02:04:15;;;;;;;9.80;3.10;;;;;;;14.46;100.00;100718.19;5085264;28;20032;-83
2023/08/27 02:06:40;;;;;;;11.43;3.38;;;;;;;14.48;100.00;100718.91;5071618;28;20032;-82
2023/08/27 02:09:06;;;;;;;8.18;3.10;;;;;;;14.48;100.00;100717.06;5079847;28;20072;-83
2023/08/27 02:11:31;;;;;;;7.65;3.13;;;;;;;14.50;100.00;100722.34;5075404;28;20029;-81
2023/08/27 02:13:57;;;;;;;8.05;3.17;;;;;;;14.49;100.00;100724.19;5061881;28;20025;-82
2023/08/27 02:16:22;;;;;;;7.82;3.25;;;;;;;14.54;100.00;100725.59;5087385;28;20025;-83
2023/08/27 02:18:47;;;;;;;8.77;3.03;;;;;;;14.55;100.00;100727.31;5080062;28;20436;-82
2023/08/27 02:21:13;;;;;;;10.93;3.45;;;;;;;14.57;100.00;100726.19;5082526;28;20031;-82
2023/08/27 02:23:38;;;;;;;7.10;3.03;;;;;;;14.61;100.00;100726.75;5080138;28;20115;-82
2023/08/27 02:26:03;;;;;;;8.98;3.00;;;;;;;14.63;100.00;100731.06;5074041;28;20450;-83
2023/08/27 02:28:29;;;;;;;10.65;3.30;;;;;;;14.64;100.00;100721.94;5085265;28;20021;-82
2023/08/27 02:30:55;;;;;;;10.35;3.13;;;;;;;14.62;100.00;100721.22;5077816;28;20024;-82
2023/08/27 02:33:23;;;;;;;10.77;3.40;;;;;;;14.62;100.00;100723.09;5074301;28;20021;-83
2023/08/27 02:35:49;;;;;;;9.50;2.95;;;;;;;14.64;100.00;100735.47;5095381;28;20126;-78
2023/08/27 02:38:14;;;;;;;9.68;3.42;;;;;;;14.62;100.00;100728.50;5096623;28;20018;-78
2023/08/27 02:40:40;;;;;;;11.38;3.50;;;;;;;14.58;100.00;100722.47;5100724;28;20012;-77
2023/08/27 02:43:06;;;;;;;10.85;3.50;;;;;;;14.53;100.00;100727.47;5092595;28;20402;-77
2023/08/27 02:45:31;;;;;;;8.73;3.70;;;;;;;14.50;100.00;100723.19;5099373;28;20028;-78
2023/08/27 02:47:56;;;;;;;10.70;3.30;;;;;;;14.44;100.00;100720.19;5103346;28;20028;-78
2023/08/27 02:50:22;;;;;;;11.57;3.58;;;;;;;14.40;100.00;100726.88;5100426;28;20022;-77
2023/08/27 02:52:47;;;;;;;11.57;3.42;;;;;;;14.41;100.00;100731.31;5094949;28;20029;-78
2023/08/27 02:55:12;;;;;;;9.27;3.35;;;;;;;14.40;100.00;100732.28;5092159;28;20092;-77
2023/08/27 02:57:38;;;;;;;8.82;3.13;;;;;;;14.42;100.00;100725.75;5102269;28;20055;-78
2023/08/27 03:00:04;;;;;;;9.77;3.72;;;;;;;14.42;100.00;100728.47;5084795;28;20040;-77
2023/08/27 03:02:30;;;;;;;11.82;3.88;;;;;;;14.43;100.00;100734.72;5078633;28;20013;-78
2023/08/27 03:04:57;;;;;;;10.55;3.75;;;;;;;14.46;100.00;100740.69;5092244;28;20033;-78
2023/08/27 03:07:23;;;;;;;40.55;7.18;;;;;;;14.46;100.00;100729.84;5105784;28;20028;-78
2023/08/27 03:09:48;;;;;;;8.93;3.55;;;;;;;14.43;100.00;100727.44;5097619;28;20029;-78
2023/08/27 03:12:14;;;;;;;11.57;3.75;;;;;;;14.43;100.00;100724.75;5096869;28;20134;-78
2023/08/27 03:14:40;;;;;;;11.77;3.85;;;;;;;14.41;100.00;100731.31;5091720;28;20040;-78
2023/08/27 03:17:09;;;;;;;9.55;3.35;;;;;;;14.43;100.00;100740.13;5097627;28;20073;-78
2023/08/27 03:19:34;;;;;;;9.77;3.70;;;;;;;14.39;100.00;100733.28;5102162;28;20032;-78
2023/08/27 03:22:00;;;;;;;11.80;3.63;;;;;;;14.34;100.00;100731.00;5102343;28;20063;-78
2023/08/27 03:24:25;;;;;;;14.00;3.67;;;;;;;14.40;100.00;100738.53;5105279;28;20031;-78
2023/08/27 03:26:51;;;;;;;9.85;3.55;;;;;;;14.41;100.00;100748.38;5095862;28;20078;-78
2023/08/27 03:29:16;;;;;;;14.50;4.22;;;;;;;14.40;100.00;100745.81;5110044;28;20013;-78
2023/08/27 03:31:42;;;;;;;10.70;3.45;;;;;;;14.31;100.00;100745.63;5107764;28;20604;-79
2023/08/27 03:34:07;;;;;;;13.88;3.95;;;;;;;14.28;100.00;100732.41;5097774;28;20108;-79
2023/08/27 03:36:33;;;;;;;9.88;3.60;;;;;;;14.25;100.00;100731.84;5099589;28;20025;-80
2023/08/27 03:38:58;;;;;;;12.93;3.10;;;;;;;14.18;100.00;100717.19;5093505;28;20036;-79
2023/08/27 03:41:23;;;;;;;12.27;3.80;;;;;;;14.17;100.00;100710.91;5107823;28;20024;-79
2023/08/27 03:43:48;;;;;;;8.82;3.22;;;;;;;14.09;100.00;100705.34;5098941;28;20021;-79
2023/08/27 03:46:14;;;;;;;11.57;4.07;;;;;;;14.06;100.00;100711.03;5108037;28;20027;-79
2023/08/27 03:48:39;;;;;;;9.07;3.38;;;;;;;14.04;100.00;100694.97;5094437;28;20024;-78
2023/08/27 03:51:04;;;;;;;11.57;3.53;;;;;;;14.03;100.00;100703.22;5097177;28;20039;-78
2023/08/27 03:53:30;;;;;;;11.20;3.10;;;;;;;14.02;100.00;100706.91;5079669;28;20581;-76
2023/08/27 03:55:56;;;;;;;10.13;3.28;;;;;;;14.04;100.00;100704.91;5103413;28;20032;-79
2023/08/27 03:58:21;;;;;;;9.75;2.88;;;;;;;14.01;100.00;100694.38;5094140;28;20033;-79
2023/08/27 04:00:48;;;;;;;9.13;3.40;;;;;;;13.98;100.00;100692.78;5079977;28;20189;-79
2023/08/27 04:03:13;;;;;;;11.43;3.85;;;;;;;14.02;100.00;100691.53;5096344;28;20030;-78
2023/08/27 04:05:38;;;;;;;9.55;3.67;;;;;;;14.04;100.00;100703.06;5097770;28;20048;-78
2023/08/27 04:08:04;;;;;;;10.27;3.30;;;;;;;14.02;100.00;100698.78;5088568;28;20043;-79
2023/08/27 04:10:29;;;;;;;9.45;3.47;;;;;;;14.03;100.00;100697.81;5086557;28;20029;-78
2023/08/27 04:12:56;;;;;;;10.30;3.60;;;;;;;14.00;100.00;100685.41;5097214;28;20024;-78
2023/08/27 04:15:21;;;;;;;10.85;3.47;;;;;;;14.00;100.00;100685.41;5102528;28;20080;-79
2023/08/27 04:17:47;;;;;;;11.98;3.17;;;;;;;14.01;100.00;100691.66;5097045;28;20068;-79
2023/08/27 04:20:12;;;;;;;13.20;3.80;;;;;;;14.02;100.00;100705.03;5101660;28;20032;-79
2023/08/27 04:22:37;;;;;;;13.75;3.67;;;;;;;14.03;100.00;100700.50;5088980;28;20092;-79
2023/08/27 04:25:03;;;;;;;8.93;3.65;;;;;;;14.05;100.00;100703.91;5085552;28;20032;-79
2023/08/27 04:27:29;;;;;;;13.32;3.88;;;;;;;14.05;100.00;100709.31;5087113;28;20036;-79
2023/08/27 04:29:54;;;;;;;10.80;3.40;;;;;;;14.04;100.00;100705.78;5088808;28;20013;-79
2023/08/27 04:32:19;;;;;;;13.32;4.20;;;;;;;14.04;100.00;100700.38;5089226;28;20024;-79
2023/08/27 04:34:45;;;;;;;9.70;3.53;;;;;;;14.03;100.00;100700.50;5100972;28;20127;-79
2023/08/27 04:37:10;;;;;;;11.68;3.55;;;;;;;14.04;100.00;100707.59;5102192;28;20028;-79
2023/08/27 04:39:39;;;;;;;12.02;3.70;;;;;;;14.03;100.00;100698.66;5092496;28;20083;-79
2023/08/27 04:42:04;;;;;;;12.48;4.00;;;;;;;14.04;100.00;100699.50;5086402;28;20043;-79
2023/08/27 04:44:31;;;;;;;15.20;4.05;;;;;;;14.03;100.00;100695.94;5091524;28;20024;-79
2023/08/27 04:46:56;;;;;;;13.18;3.75;;;;;;;14.03;100.00;100697.81;5103460;28;20027;-79
2023/08/27 04:49:22;;;;;;;11.23;3.50;;;;;;;14.01;100.00;100699.78;5100388;28;20032;-79
2023/08/27 04:51:47;;;;;;;13.23;4.03;;;;;;;13.99;100.00;100700.75;5098112;28;20048;-79
2023/08/27 04:54:12;;;;;;;13.18;4.38;;;;;;;14.00;100.00;100712.44;5086136;28;20020;-79
2023/08/27 04:56:38;;;;;;;9.43;3.47;;;;;;;14.02;100.00;100720.41;5068786;28;20024;-79
2023/08/27 04:59:03;;;;;;;15.23;4.00;;;;;;;14.01;100.00;100721.38;5080731;28;20028;-79
2023/08/27 05:01:28;;;;;;;11.48;3.42;;;;;;;14.02;100.00;100728.50;5069115;28;20487;-78
2023/08/27 05:03:54;;;;;;;12.82;3.90;;;;;;;14.01;100.00;100730.34;5076312;28;20550;-78
2023/08/27 05:06:19;;;;;;;15.38;4.10;;;;;;;13.98;100.00;100731.50;5065721;28;20017;-78
2023/08/27 05:08:44;;;;;;;11.45;3.83;;;;;;;14.02;100.00;100731.22;5076335;28;20088;-79
2023/08/27 05:11:10;;;;;;;13.13;4.22;;;;;;;14.03;100.00;100730.22;5061898;28;20042;-78
2023/08/27 05:13:36;;;;;;;12.40;3.60;;;;;;;14.03;100.00;100730.22;5068709;28;20026;-79
2023/08/27 05:16:02;;;;;;;14.43;3.90;;;;;;;14.04;100.00;100732.78;5065325;28;20079;-78
2023/08/27 05:18:27;;;;;;;12.65;4.03;;;;;;;14.05;100.00;100729.06;5069540;28;20476;-78
2023/08/27 05:20:52;;;;;;;14.55;3.85;;;;;;;14.07;100.00;100723.53;5080373;28;20504;-78
2023/08/27 05:23:20;;;;;;;12.48;3.83;;;;;;;14.06;100.00;100733.50;5077738;28;20032;-78
2023/08/27 05:25:45;;;;;;;14.38;4.15;;;;;;;14.04;100.00;100724.69;5069064;28;20104;-78
2023/08/27 05:28:11;;;;;;;16.50;4.10;;;;;;;14.07;100.00;100718.13;5069185;28;20437;-78
2023/08/27 05:30:36;;;;;;;12.05;4.05;;;;;;;14.08;100.00;100723.38;5077727;28;20484;-78
2023/08/27 05:33:02;;;;;;;14.35;5.13;;;;;;;14.09;100.00;100718.88;5068736;28;20052;-78
2023/08/27 05:35:27;;;;;;;15.20;5.00;;;;;;;14.08;100.00;100711.75;5074753;28;20043;-78
2023/08/27 05:37:53;;;;;;;14.13;5.28;;;;;;;14.10;100.00;100712.44;5081081;28;20549;-79
2023/08/27 05:40:18;;;;;;;12.88;4.40;;;;;;;14.09;100.00;100721.56;5081715;28;20030;-78
2023/08/27 05:42:44;;;;;;;17.40;4.53;;;;;;;14.08;100.00;100730.66;5077488;28;20021;-78
2023/08/27 05:45:09;;;;;;;12.85;4.30;;;;;;;14.09;100.00;100722.41;5074920;28;20068;-78
2023/08/27 05:47:35;;;;;;;14.73;4.25;;;;;;;14.11;100.00;100719.56;5069513;28;20052;-78
2023/08/27 05:50:00;;;;;;;11.43;4.30;;;;;;;14.12;100.00;100724.00;5058498;28;20039;-76
2023/08/27 05:52:26;;;;;;;11.93;4.28;;;;;;;14.18;100.00;100720.72;5061074;28;20047;-75
2023/08/27 05:54:51;;;;;;;15.20;4.40;;;;;;;14.20;100.00;100713.31;5068408;28;20278;-78
2023/08/27 05:57:17;;;;;;;14.65;4.65;;;;;;;14.21;100.00;100716.88;5061948;28;20037;-79
2023/08/27 05:59:42;;;;;;;13.63;4.30;;;;;;;14.22;100.00;100714.06;5070343;28;20063;-79
2023/08/27 06:02:09;;;;;;;14.13;4.18;;;;;;;14.23;100.00;100718.47;5068933;28;20507;-78
2023/08/27 06:04:34;;;;;;;9.82;3.90;;;;;;;14.24;100.00;100719.31;5070531;28;20408;-78
2023/08/27 06:06:59;;;;;;;13.48;4.13;;;;;;;14.24;100.00;100714.75;5083183;28;20100;-80
2023/08/27 06:09:25;;;;;;;17.30;4.53;;;;;;;14.26;100.00;100718.19;5068919;28;20028;-79
2023/08/27 06:11:50;;;;;;;15.30;5.07;;;;;;;14.30;100.00;100714.19;5069716;28;20020;-79
2023/08/27 06:14:15;;;;;;;12.68;4.22;;;;;;;14.30;100.00;100708.78;5077828;28;20046;-79
2023/08/27 06:16:41;;;;;;;10.15;4.07;;;;;;;14.30;100.00;100707.94;5070489;28;20075;-79
2023/08/27 06:19:09;;;;;;;14.07;4.45;;;;;;;14.30;100.00;100703.38;5064782;28;20112;-79
2023/08/27 06:21:34;;;;;;;12.95;4.25;;;;;;;14.34;100.00;100703.97;5071872;28;20028;-79
2023/08/27 06:24:00;;;;;;;13.40;4.45;;;;;;;14.35;100.00;100700.28;5077862;28;20050;-79
2023/08/27 06:26:25;;;;;;;12.73;4.45;;;;;;;14.36;100.00;100696.56;5071162;28;20495;-79
2023/08/27 06:28:50;;;;;;;12.02;4.18;;;;;;;14.42;100.00;100695.13;5080236;28;20028;-78
2023/08/27 06:31:16;;;;;;;13.20;3.78;;;;;;;14.40;100.00;100692.56;5078715;28;20499;-78
2023/08/27 06:33:41;;;;;;;9.90;3.40;;;;;;;14.43;100.00;100688.75;5085420;28;20032;-79
2023/08/27 06:36:06;;;;;;;13.40;4.25;;;;;;;14.45;100.00;100695.72;5065382;28;20039;-78
2023/08/27 06:38:32;;;;;;;14.15;4.10;;;;;;;14.49;100.00;100697.16;5080245;28;20028;-78
2023/08/27 06:40:58;;;;;;;12.57;4.22;;;;;;;14.49;100.00;100697.16;5072625;28;20552;-78
2023/08/27 06:43:23;;;;;;;11.93;4.22;;;;;;;14.57;100.00;100703.66;5070316;28;20552;-78
2023/08/27 06:45:49;;;;;;;12.10;3.83;;;;;;;14.59;100.00;100702.53;5066585;28;20024;-77
2023/08/27 06:48:15;;;;;;;13.80;4.32;;;;;;;14.63;100.00;100704.00;5069014;28;20024;-78
2023/08/27 06:50:41;;;;;;;15.48;4.75;;;;;;;14.66;100.00;100697.47;5067233;28;20116;-77
2023/08/27 06:53:10;;;;;;;14.20;4.93;;;;;;;14.71;100.00;100697.03;5059348;28;20038;-78
2023/08/27 06:55:35;;;;;;;12.70;4.15;;;;;;;14.76;100.00;100702.84;5066954;28;20231;-78
2023/08/27 06:58:01;;;;;;;14.43;3.75;;;;;;;14.79;100.00;100705.28;5071247;28;20103;-78
2023/08/27 07:00:26;;;;;;;13.98;4.55;;;;;;;14.82;100.00;100703.13;5066663;28;20028;-78
2023/08/27 07:02:52;;;;;;;16.50;5.07;;;;;;;14.84;100.00;100705.69;5068853;28;20021;-77
2023/08/27 07:05:18;;;;;;;14.07;4.65;;;;;;;14.85;100.00;100702.84;5062226;28;20048;-78
2023/08/27 07:07:44;;;;;;;17.65;4.93;;;;;;;14.93;100.00;100715.66;5069582;28;20028;-78
2023/08/27 07:10:10;;;;;;;12.77;4.28;;;;;;;14.97;100.00;100711.66;5076516;28;20404;-78
2023/08/27 07:12:36;;;;;;;16.05;5.10;;;;;;;15.01;100.00;100723.91;5064776;28;20111;-77
2023/08/27 07:15:08;;;;;;;13.57;4.38;;;;;;;15.08;100.00;100715.22;5067538;28;20021;-77
2023/08/27 07:17:34;;;;;;;13.30;4.80;;;;;;;15.10;100.00;100714.06;5071492;28;20023;-76
2023/08/27 07:20:07;;;;;;;14.80;4.88;;;;;;;15.10;100.00;100705.94;5067555;28;20452;-77
2023/08/27 07:22:33;;;;;;;16.50;4.78;;;;;;;15.18;100.00;100707.91;5087618;28;20055;-76
2023/08/27 07:24:59;;;;;;;13.43;4.78;;;;;;;15.24;100.00;100714.59;5077305;28;20113;-77
2023/08/27 07:27:24;;;;;;;13.98;4.50;;;;;;;15.27;100.00;100712.47;5074982;28;20094;-77
2023/08/27 07:29:49;;;;;;;15.57;5.13;;;;;;;15.30;100.00;100709.47;5060690;28;20113;-77
2023/08/27 07:32:16;;;;;;;15.90;5.03;;;;;;;15.34;100.00;100712.72;5063635;28;20024;-77
2023/08/27 07:34:41;;;;;;;16.90;5.03;;;;;;;15.37;100.00;100716.00;5058664;28;20078;-77
2023/08/27 07:37:06;;;;;;;15.32;4.78;;;;;;;15.38;100.00;100720.41;5065263;28;20036;-77
2023/08/27 07:39:32;;;;;;;16.73;5.45;;;;;;;15.43;100.00;100719.97;5065891;28;20047;-77
2023/08/27 07:41:58;;;;;;;16.42;5.28;;;;;;;15.46;100.00;100711.56;5067436;28;20016;-77
2023/08/27 07:44:23;;;;;;;21.38;6.28;;;;;;;15.52;100.00;100710.97;5056242;28;20024;-77
2023/08/27 07:46:49;;;;;;;16.90;5.88;;;;;;;15.56;100.00;100716.94;5058491;28;20412;-77
2023/08/27 07:49:15;;;;;;;18.08;6.20;;;;;;;15.57;100.00;100715.94;5062887;28;20033;-77
2023/08/27 07:51:40;;;;;;;16.63;5.63;;;;;;;15.53;100.00;100714.50;5057080;28;20055;-77
2023/08/27 07:54:05;;;;;;;15.88;5.65;;;;;;;15.56;100.00;100711.50;5047215;28;20067;-76
2023/08/27 07:56:31;;;;;;;19.33;6.80;;;;;;;15.57;100.00;100718.63;5069699;28;20055;-78
2023/08/27 07:58:56;;;;;;;19.75;6.53;;;;;;;15.63;100.00;100722.63;5068495;28;20028;-77
2023/08/27 08:01:21;;;;;;;19.27;6.47;;;;;;;15.70;100.00;100712.91;5062867;28;20029;-77
2023/08/27 08:03:47;;;;;;;18.38;7.05;;;;;;;15.77;100.00;100708.59;5069599;28;20044;-77
2023/08/27 08:06:13;;;;;;;17.67;7.25;;;;;;;15.78;100.00;100713.00;5064193;28;20423;-77
2023/08/27 08:08:39;;;;;;;20.42;6.35;;;;;;;15.79;100.00;100711.19;5070493;28;20348;-78
2023/08/27 08:11:04;;;;;;;17.30;5.88;;;;;;;15.76;100.00;100708.75;5076992;28;20035;-77
2023/08/27 08:13:32;;;;;;;17.77;6.55;;;;;;;15.78;100.00;100701.28;5053304;28;20388;-77
2023/08/27 08:15:58;;;;;;;18.63;5.82;;;;;;;15.83;100.00;100708.00;5071447;28;20028;-77
2023/08/27 08:18:23;;;;;;;19.45;6.72;;;;;;;15.82;100.00;100706.28;5059940;28;20502;-76
2023/08/27 08:20:51;;;;;;;15.95;6.07;;;;;;;15.85;100.00;100707.84;5067473;28;20115;-77
2023/08/27 08:23:17;;;;;;;18.13;6.03;;;;;;;15.90;100.00;100708.25;5062259;28;20073;-77
2023/08/27 08:25:43;;;;;;;17.08;6.18;;;;;;;15.95;100.00;100705.94;5076812;28;20044;-77
2023/08/27 08:28:08;;;;;;;17.63;6.32;;;;;;;16.00;100.00;100711.78;5077612;28;20096;-77
2023/08/27 08:30:34;;;;;;;17.42;6.75;;;;;;;16.07;100.00;100723.69;5071588;28;20595;-77
2023/08/27 08:32:59;;;;;;;18.52;6.30;;;;;;;16.15;100.00;100711.25;5059896;28;20056;-77
2023/08/27 08:35:25;;;;;;;17.52;6.47;;;;;;;16.21;100.00;100713.38;5072473;28;20036;-78
2023/08/27 08:37:50;;;;;;;15.07;5.70;;;;;;;16.28;100.00;100716.31;5065365;28;20040;-77
2023/08/27 08:40:18;;;;;;;18.17;6.13;;;;;;;16.35;100.00;100717.41;5057933;28;20503;-77
2023/08/27 08:43:02;;;;;;;16.70;6.03;;;;;;;16.40;100.00;100715.94;5059878;28;20054;-77
2023/08/27 08:45:52;;;;;;;16.67;5.60;;;;;;;16.47;100.00;100716.19;5072478;28;20070;-77
2023/08/27 08:48:22;;;;;;;15.05;5.20;;;;;;;16.54;100.00;100719.97;5070021;28;20024;-77
2023/08/27 08:50:50;;;;;;;15.70;4.75;;;;;;;16.62;100.00;100718.34;5067565;28;20485;-78
2023/08/27 08:53:16;;;;;;;12.68;3.90;;;;;;;16.67;100.00;100711.44;5062489;28;20713;-76
2023/08/27 08:55:51;;;;;;;19.58;4.80;;;;;;;16.64;100.00;100730.75;5061971;28;20082;-77
2023/08/27 08:58:19;;;;;;;14.43;4.53;;;;;;;16.58;100.00;100718.66;5056873;28;20054;-77
2023/08/27 09:00:45;;;;;;;11.55;4.13;;;;;;;16.56;100.00;100723.38;5061106;28;20050;-78
2023/08/27 09:03:11;;;;;;;12.30;4.03;;;;;;;16.50;100.00;100720.44;5063497;28;20032;-78
2023/08/27 09:05:38;;;;;;;10.50;3.65;;;;;;;16.43;100.00;100720.22;5061209;28;20531;-78
2023/08/27 09:08:05;;;;;;;10.85;3.50;;;;;;;16.40;100.00;100706.97;5059241;28;20025;-76
2023/08/27 09:10:31;;;;;;;10.25;3.30;;;;;;;16.41;100.00;100706.81;5060266;28;20043;-76
2023/08/27 09:12:58;;;;;;;14.90;3.78;;;;;;;16.54;100.00;100700.97;5061262;28;20028;-76
2023/08/27 09:15:25;;;;;;;12.80;4.07;;;;;;;16.68;100.00;100691.44;5060396;28;20028;-75
2023/08/27 09:17:50;;;;;;;12.23;3.60;;;;;;;16.86;100.00;100693.28;5057167;28;20058;-76
2023/08/27 09:20:16;;;;;;;16.33;3.72;;;;;;;17.02;100.00;100688.00;5059250;28;20036;-75
2023/08/27 09:22:42;;;;;;;11.43;2.90;;;;;;;17.15;100.00;100693.00;5059570;28;20024;-76
2023/08/27 09:25:11;;;;;;;11.45;3.65;;;;;;;17.26;100.00;100691.88;5059905;28;20066;-76
2023/08/27 09:27:36;;;;;;;9.25;3.33;;;;;;;17.35;100.00;100690.06;5058554;28;20115;-76
2023/08/27 09:30:08;;;;;;;7.18;2.78;;;;;;;17.42;98.80;100686.56;5057525;28;20039;-75
2023/08/27 09:32:33;;;;;;;9.30;3.08;;;;;;;17.55;100.00;100682.56;5060306;28;20032;-76
2023/08/27 09:35:03;;;;;;;10.80;3.75;;;;;;;17.60;96.81;100681.06;5063847;28;20058;-76
2023/08/27 09:37:39;;;;;;;9.52;3.13;;;;;;;17.56;95.84;100665.25;5062856;28;20028;-76
2023/08/27 09:40:13;;;;;;;7.88;2.63;;;;;;;17.51;95.17;100671.16;5058548;28;20070;-76
2023/08/27 09:42:39;;;;;;;11.43;3.13;;;;;;;17.46;94.38;100666.19;5063536;28;20075;-76
2023/08/27 09:45:06;;;;;;;9.50;3.28;;;;;;;17.47;96.85;100665.19;5066641;28;20027;-77
2023/08/27 09:47:34;;;;;;;8.18;2.60;;;;;;;17.52;99.17;100669.28;5065099;28;20032;-77
2023/08/27 09:50:15;;;;;;;10.90;2.88;;;;;;;17.56;98.33;100665.25;5065703;28;20029;-76
2023/08/27 09:52:45;;;;;;;13.38;3.20;;;;;;;17.58;95.99;100669.47;5082738;28;20136;-82
2023/08/27 09:55:14;;;;;;;13.80;3.63;;;;;;;17.57;92.86;100661.50;5060998;28;20028;-84
2023/08/27 09:57:47;;;;;;;8.40;2.63;;;;;;;17.58;95.78;100666.75;5073822;28;20039;-85
2023/08/27 10:00:14;;;;;;;31.92;7.30;;;;;;;17.67;98.51;100673.09;5082755;28;20028;-85
2023/08/27 10:02:43;;;;;;;13.38;3.20;;;;;;;17.70;94.66;100664.63;5073307;28;20040;-83
2023/08/27 10:05:09;;;;;;;7.47;2.40;;;;;;;17.74;91.84;100665.97;5063958;28;20051;-84
2023/08/27 10:07:34;;;;;;;10.15;3.22;;;;;;;17.78;92.32;100670.06;5070096;28;20021;-74
2023/08/27 10:10:02;;;;;;;10.50;2.90;;;;;;;17.86;95.16;100652.94;5076621;28;20032;-74
2023/08/27 10:12:28;;;;;;;10.65;3.13;;;;;;;17.87;92.61;100667.41;5067463;28;20020;-73
2023/08/27 10:14:54;;;;;;;9.82;2.90;;;;;;;17.86;91.17;100671.97;5071485;28;20030;-74
2023/08/27 10:17:19;;;;;;;8.75;3.10;;;;;;;17.92;97.30;100662.34;5069706;28;20447;-74
2023/08/27 10:19:45;;;;;;;9.23;2.95;;;;;;;17.97;95.99;100665.41;5067638;28;20459;-74
2023/08/27 10:22:11;;;;;;;7.88;2.92;;;;;;;18.03;91.32;100664.75;5066700;28;20040;-74
2023/08/27 10:24:38;;;;;;;7.25;3.03;;;;;;;18.08;92.19;100662.41;5064708;28;20028;-74
2023/08/27 10:27:04;;;;;;;10.18;3.10;;;;;;;18.16;91.32;100658.84;5063212;28;20108;-74
2023/08/27 10:29:30;;;;;;;6.55;2.50;;;;;;;18.20;91.36;100654.78;5063206;28;20168;-74
2023/08/27 10:31:56;;;;;;;8.52;2.47;;;;;;;18.15;87.76;100663.41;5065140;28;20094;-73
2023/08/27 10:34:28;;;;;;;11.50;2.70;;;;;;;18.13;85.87;100659.19;5066450;28;20033;-73
2023/08/27 10:36:55;;;;;;;11.50;3.10;;;;;;;18.09;87.25;100665.97;5073844;28;20024;-74
2023/08/27 10:39:28;;;;;;;7.55;2.72;;;;;;;18.03;88.35;100664.75;5069181;28;20027;-74
2023/08/27 10:41:53;;;;;;;10.32;2.70;;;;;;;17.99;87.29;100668.81;5055327;28;20031;-74
2023/08/27 10:44:19;;;;;;;10.10;2.95;;;;;;;17.94;86.82;100676.63;5054053;28;20020;-74
2023/08/27 10:47:12;;;;;;;8.88;3.08;;;;;;;17.98;89.94;100684.28;5045040;28;20036;-71
2023/08/27 10:49:39;;;;;;;8.95;2.30;;;;;;;18.02;85.56;100684.78;5046540;28;20035;-72
2023/08/27 10:52:18;;;;;;;6.50;2.30;;;;;;;18.03;86.32;100691.94;5059373;28;20050;-71
2023/08/27 10:54:47;;;;;;;;;;;;;;;18.08;89.58;100677.84;5048021;28;20567;-73
2023/08/27 10:57:22;;;;;;;8.60;2.63;;;;;;;18.02;85.36;100676.63;5048599;28;19917;-72
2023/08/27 10:59:48;;;;;;;7.80;2.55;;;;;;;18.01;87.32;100674.09;5047250;28;20305;-72
2023/08/27 11:02:16;;;;;;;5.40;2.25;;;;;;;18.06;86.46;100669.84;5056822;28;20032;-73
2023/08/27 11:04:43;;;;;;;3.83;1.92;;;;;;;18.16;84.75;100667.00;5045897;28;20689;-73
2023/08/27 11:07:17;;;;;;;3.80;2.08;;;;;;;18.23;82.52;100669.88;5070197;28;20023;-71
2023/08/27 11:10:02;;;;;;;8.30;2.47;;;;;;;18.29;86.89;100669.25;5069224;28;20055;-71
2023/08/27 11:12:37;;;;;;;6.78;2.25;;;;;;;18.24;81.75;100680.59;5065511;28;20064;-72